sensor_id;sensor_type;location;lat;lon;timestamp;P1;durP1;ratioP1;P2;durP2;ratioP2
57832;SDS011;43667;53.036;6.740;2023-11-22T00:00:06;28.30;;;14.60;;
57832;SDS011;43667;53.036;6.740;2023-11-22T00:02:32;22.00;;;14.88;;
57832;SDS011;43667;53.036;6.740;2023-11-22T00:04:58;27.60;;;15.50;;
57832;SDS011;43667;53.036;6.740;2023-11-22T00:07:24;26.67;;;14.48;;
57832;SDS011;43667;53.036;6.740;2023-11-22T00:09:50;23.77;;;13.82;;
57832;SDS011;43667;53.036;6.740;2023-11-22T00:12:17;27.58;;;14.63;;
57832;SDS011;43667;53.036;6.740;2023-11-22T00:14:43;29.40;;;15.80;;
57832;SDS011;43667;53.036;6.740;2023-11-22T00:17:10;24.33;;;14.13;;
57832;SDS011;43667;53.036;6.740;2023-11-22T00:19:36;27.00;;;14.55;;
57832;SDS011;43667;53.036;6.740;2023-11-22T00:22:02;34.92;;;15.20;;
57832;SDS011;43667;53.036;6.740;2023-11-22T00:24:36;28.38;;;14.70;;
57832;SDS011;43667;53.036;6.740;2023-11-22T00:27:02;21.05;;;13.82;;
57832;SDS011;43667;53.036;6.740;2023-11-22T00:29:28;25.10;;;14.85;;
57832;SDS011;43667;53.036;6.740;2023-11-22T00:31:54;27.00;;;14.20;;
57832;SDS011;43667;53.036;6.740;2023-11-22T00:34:21;23.95;;;13.80;;
57832;SDS011;43667;53.036;6.740;2023-11-22T00:36:48;28.13;;;14.32;;
57832;SDS011;43667;53.036;6.740;2023-11-22T00:39:15;23.50;;;13.73;;
57832;SDS011;43667;53.036;6.740;2023-11-22T00:41:41;27.20;;;14.60;;
57832;SDS011;43667;53.036;6.740;2023-11-22T00:44:09;24.92;;;13.85;;
57832;SDS011;43667;53.036;6.740;2023-11-22T00:46:35;26.52;;;13.60;;
57832;SDS011;43667;53.036;6.740;2023-11-22T00:49:02;26.13;;;13.93;;
57832;SDS011;43667;53.036;6.740;2023-11-22T00:51:29;19.98;;;13.30;;
57832;SDS011;43667;53.036;6.740;2023-11-22T00:53:56;24.55;;;13.70;;
57832;SDS011;43667;53.036;6.740;2023-11-22T00:56:22;24.33;;;13.65;;
57832;SDS011;43667;53.036;6.740;2023-11-22T00:58:48;30.02;;;14.98;;
57832;SDS011;43667;53.036;6.740;2023-11-22T01:01:15;25.25;;;14.82;;
57832;SDS011;43667;53.036;6.740;2023-11-22T01:03:41;44.38;;;17.40;;
57832;SDS011;43667;53.036;6.740;2023-11-22T01:06:07;29.67;;;14.95;;
57832;SDS011;43667;53.036;6.740;2023-11-22T01:08:34;25.63;;;14.60;;
57832;SDS011;43667;53.036;6.740;2023-11-22T01:11:01;31.48;;;14.60;;
57832;SDS011;43667;53.036;6.740;2023-11-22T01:13:28;26.38;;;13.57;;
57832;SDS011;43667;53.036;6.740;2023-11-22T01:15:54;28.70;;;15.13;;
57832;SDS011;43667;53.036;6.740;2023-11-22T01:18:20;30.52;;;14.52;;
57832;SDS011;43667;53.036;6.740;2023-11-22T01:20:46;23.75;;;12.98;;
57832;SDS011;43667;53.036;6.740;2023-11-22T01:23:13;31.23;;;14.23;;
57832;SDS011;43667;53.036;6.740;2023-11-22T01:25:39;23.92;;;12.90;;
57832;SDS011;43667;53.036;6.740;2023-11-22T01:28:05;25.40;;;14.00;;
57832;SDS011;43667;53.036;6.740;2023-11-22T01:30:36;26.25;;;14.38;;
57832;SDS011;43667;53.036;6.740;2023-11-22T01:33:03;28.27;;;14.02;;
57832;SDS011;43667;53.036;6.740;2023-11-22T01:35:29;22.90;;;13.55;;
57832;SDS011;43667;53.036;6.740;2023-11-22T01:37:55;24.33;;;14.23;;
57832;SDS011;43667;53.036;6.740;2023-11-22T01:40:23;31.33;;;15.15;;
57832;SDS011;43667;53.036;6.740;2023-11-22T01:42:50;28.88;;;15.05;;
57832;SDS011;43667;53.036;6.740;2023-11-22T01:45:16;36.22;;;16.05;;
57832;SDS011;43667;53.036;6.740;2023-11-22T01:47:43;32.10;;;15.70;;
57832;SDS011;43667;53.036;6.740;2023-11-22T01:50:09;33.72;;;15.50;;
57832;SDS011;43667;53.036;6.740;2023-11-22T01:52:36;25.13;;;13.75;;
57832;SDS011;43667;53.036;6.740;2023-11-22T01:55:02;30.15;;;14.93;;
57832;SDS011;43667;53.036;6.740;2023-11-22T01:57:31;29.10;;;14.63;;
57832;SDS011;43667;53.036;6.740;2023-11-22T02:00:00;33.20;;;14.95;;
57832;SDS011;43667;53.036;6.740;2023-11-22T02:02:26;34.35;;;15.05;;
57832;SDS011;43667;53.036;6.740;2023-11-22T02:04:52;35.47;;;14.75;;
57832;SDS011;43667;53.036;6.740;2023-11-22T02:07:18;33.42;;;16.05;;
57832;SDS011;43667;53.036;6.740;2023-11-22T02:09:44;36.55;;;16.83;;
57832;SDS011;43667;53.036;6.740;2023-11-22T02:12:10;30.35;;;15.48;;
57832;SDS011;43667;53.036;6.740;2023-11-22T02:14:37;28.05;;;15.18;;
57832;SDS011;43667;53.036;6.740;2023-11-22T02:17:03;36.20;;;16.92;;
57832;SDS011;43667;53.036;6.740;2023-11-22T02:19:29;39.08;;;16.92;;
57832;SDS011;43667;53.036;6.740;2023-11-22T02:21:56;30.30;;;16.75;;
57832;SDS011;43667;53.036;6.740;2023-11-22T02:24:22;28.42;;;16.15;;
57832;SDS011;43667;53.036;6.740;2023-11-22T02:26:48;34.97;;;16.73;;
57832;SDS011;43667;53.036;6.740;2023-11-22T02:29:14;29.75;;;16.33;;
57832;SDS011;43667;53.036;6.740;2023-11-22T02:31:41;38.65;;;17.58;;
57832;SDS011;43667;53.036;6.740;2023-11-22T02:34:08;36.90;;;16.63;;
57832;SDS011;43667;53.036;6.740;2023-11-22T02:36:34;30.02;;;16.23;;
57832;SDS011;43667;53.036;6.740;2023-11-22T02:39:00;34.88;;;16.85;;
57832;SDS011;43667;53.036;6.740;2023-11-22T02:41:29;43.00;;;16.85;;
57832;SDS011;43667;53.036;6.740;2023-11-22T02:43:55;34.38;;;16.23;;
57832;SDS011;43667;53.036;6.740;2023-11-22T02:46:22;30.05;;;16.38;;
57832;SDS011;43667;53.036;6.740;2023-11-22T02:48:48;30.35;;;15.43;;
57832;SDS011;43667;53.036;6.740;2023-11-22T02:51:14;29.45;;;14.98;;
57832;SDS011;43667;53.036;6.740;2023-11-22T02:53:42;27.85;;;13.50;;
57832;SDS011;43667;53.036;6.740;2023-11-22T02:56:10;33.75;;;14.93;;
57832;SDS011;43667;53.036;6.740;2023-11-22T02:58:36;36.08;;;15.70;;
57832;SDS011;43667;53.036;6.740;2023-11-22T03:01:02;36.15;;;16.48;;
57832;SDS011;43667;53.036;6.740;2023-11-22T03:03:28;52.42;;;17.45;;
57832;SDS011;43667;53.036;6.740;2023-11-22T03:05:54;52.78;;;17.95;;
57832;SDS011;43667;53.036;6.740;2023-11-22T03:08:20;43.40;;;17.17;;
57832;SDS011;43667;53.036;6.740;2023-11-22T03:10:46;34.83;;;16.42;;
57832;SDS011;43667;53.036;6.740;2023-11-22T03:13:12;33.25;;;17.33;;
57832;SDS011;43667;53.036;6.740;2023-11-22T03:15:38;37.17;;;16.42;;
57832;SDS011;43667;53.036;6.740;2023-11-22T03:18:04;49.75;;;18.13;;
57832;SDS011;43667;53.036;6.740;2023-11-22T03:20:31;40.63;;;16.98;;
57832;SDS011;43667;53.036;6.740;2023-11-22T03:22:57;38.75;;;18.25;;
57832;SDS011;43667;53.036;6.740;2023-11-22T03:25:24;33.92;;;16.95;;
57832;SDS011;43667;53.036;6.740;2023-11-22T03:27:50;28.30;;;15.98;;
57832;SDS011;43667;53.036;6.740;2023-11-22T03:30:16;38.58;;;16.40;;
57832;SDS011;43667;53.036;6.740;2023-11-22T03:32:43;36.90;;;17.80;;
57832;SDS011;43667;53.036;6.740;2023-11-22T03:35:09;40.08;;;16.92;;
57832;SDS011;43667;53.036;6.740;2023-11-22T03:37:35;27.65;;;15.00;;
57832;SDS011;43667;53.036;6.740;2023-11-22T03:40:02;32.95;;;14.93;;
57832;SDS011;43667;53.036;6.740;2023-11-22T03:42:28;33.45;;;15.98;;
57832;SDS011;43667;53.036;6.740;2023-11-22T03:44:54;29.15;;;15.75;;
57832;SDS011;43667;53.036;6.740;2023-11-22T03:47:20;29.08;;;16.23;;
57832;SDS011;43667;53.036;6.740;2023-11-22T03:49:46;29.60;;;15.70;;
57832;SDS011;43667;53.036;6.740;2023-11-22T03:52:13;32.78;;;16.02;;
57832;SDS011;43667;53.036;6.740;2023-11-22T03:54:39;31.70;;;16.23;;
57832;SDS011;43667;53.036;6.740;2023-11-22T03:57:05;41.13;;;17.88;;
57832;SDS011;43667;53.036;6.740;2023-11-22T03:59:31;32.65;;;17.63;;
57832;SDS011;43667;53.036;6.740;2023-11-22T04:01:57;42.10;;;19.00;;
57832;SDS011;43667;53.036;6.740;2023-11-22T04:04:23;45.40;;;19.35;;
57832;SDS011;43667;53.036;6.740;2023-11-22T04:06:49;52.22;;;20.52;;
57832;SDS011;43667;53.036;6.740;2023-11-22T04:09:15;39.53;;;17.65;;
57832;SDS011;43667;53.036;6.740;2023-11-22T04:11:45;38.08;;;16.10;;
57832;SDS011;43667;53.036;6.740;2023-11-22T04:14:12;41.75;;;17.17;;
57832;SDS011;43667;53.036;6.740;2023-11-22T04:16:38;55.08;;;19.38;;
57832;SDS011;43667;53.036;6.740;2023-11-22T04:19:04;38.33;;;16.92;;
57832;SDS011;43667;53.036;6.740;2023-11-22T04:21:30;39.30;;;16.73;;
57832;SDS011;43667;53.036;6.740;2023-11-22T04:23:56;45.22;;;18.35;;
57832;SDS011;43667;53.036;6.740;2023-11-22T04:26:23;49.67;;;17.73;;
57832;SDS011;43667;53.036;6.740;2023-11-22T04:28:49;35.85;;;16.65;;
57832;SDS011;43667;53.036;6.740;2023-11-22T04:31:15;43.10;;;18.58;;
57832;SDS011;43667;53.036;6.740;2023-11-22T04:33:42;51.05;;;18.25;;
57832;SDS011;43667;53.036;6.740;2023-11-22T04:36:08;44.80;;;18.58;;
57832;SDS011;43667;53.036;6.740;2023-11-22T04:38:34;35.15;;;17.63;;
57832;SDS011;43667;53.036;6.740;2023-11-22T04:41:00;38.30;;;17.52;;
57832;SDS011;43667;53.036;6.740;2023-11-22T04:43:26;55.20;;;18.77;;
57832;SDS011;43667;53.036;6.740;2023-11-22T04:45:52;60.67;;;21.13;;
57832;SDS011;43667;53.036;6.740;2023-11-22T04:48:18;50.60;;;20.48;;
57832;SDS011;43667;53.036;6.740;2023-11-22T04:50:44;53.60;;;20.25;;
57832;SDS011;43667;53.036;6.740;2023-11-22T04:53:10;38.42;;;19.73;;
57832;SDS011;43667;53.036;6.740;2023-11-22T04:55:36;37.58;;;18.55;;
57832;SDS011;43667;53.036;6.740;2023-11-22T04:58:02;35.17;;;17.73;;
57832;SDS011;43667;53.036;6.740;2023-11-22T05:00:29;51.38;;;19.73;;
57832;SDS011;43667;53.036;6.740;2023-11-22T05:02:55;48.50;;;20.80;;
57832;SDS011;43667;53.036;6.740;2023-11-22T05:05:21;42.38;;;19.45;;
57832;SDS011;43667;53.036;6.740;2023-11-22T05:07:47;48.30;;;19.88;;
57832;SDS011;43667;53.036;6.740;2023-11-22T05:10:13;52.80;;;19.90;;
57832;SDS011;43667;53.036;6.740;2023-11-22T05:12:39;51.22;;;19.95;;
57832;SDS011;43667;53.036;6.740;2023-11-22T05:15:08;54.88;;;19.92;;
57832;SDS011;43667;53.036;6.740;2023-11-22T05:17:34;52.80;;;20.67;;
57832;SDS011;43667;53.036;6.740;2023-11-22T05:20:00;51.22;;;19.73;;
57832;SDS011;43667;53.036;6.740;2023-11-22T05:22:27;52.28;;;19.05;;
57832;SDS011;43667;53.036;6.740;2023-11-22T05:24:53;43.78;;;19.73;;
57832;SDS011;43667;53.036;6.740;2023-11-22T05:27:19;48.03;;;18.90;;
57832;SDS011;43667;53.036;6.740;2023-11-22T05:29:45;64.25;;;19.73;;
57832;SDS011;43667;53.036;6.740;2023-11-22T05:32:11;45.95;;;18.77;;
57832;SDS011;43667;53.036;6.740;2023-11-22T05:34:37;50.47;;;19.25;;
57832;SDS011;43667;53.036;6.740;2023-11-22T05:37:05;44.63;;;17.92;;
57832;SDS011;43667;53.036;6.740;2023-11-22T05:39:31;40.15;;;17.80;;
57832;SDS011;43667;53.036;6.740;2023-11-22T05:41:57;42.53;;;18.88;;
57832;SDS011;43667;53.036;6.740;2023-11-22T05:44:23;48.03;;;18.58;;
57832;SDS011;43667;53.036;6.740;2023-11-22T05:46:50;40.63;;;17.73;;
57832;SDS011;43667;53.036;6.740;2023-11-22T05:49:16;38.63;;;18.17;;
57832;SDS011;43667;53.036;6.740;2023-11-22T05:51:42;43.92;;;18.65;;
57832;SDS011;43667;53.036;6.740;2023-11-22T05:54:08;46.40;;;19.77;;
57832;SDS011;43667;53.036;6.740;2023-11-22T05:56:37;43.60;;;19.17;;
57832;SDS011;43667;53.036;6.740;2023-11-22T05:59:03;39.20;;;19.63;;
57832;SDS011;43667;53.036;6.740;2023-11-22T06:01:29;51.47;;;20.02;;
57832;SDS011;43667;53.036;6.740;2023-11-22T06:03:56;45.03;;;18.92;;
57832;SDS011;43667;53.036;6.740;2023-11-22T06:06:22;54.35;;;20.55;;
57832;SDS011;43667;53.036;6.740;2023-11-22T06:08:48;55.72;;;20.95;;
57832;SDS011;43667;53.036;6.740;2023-11-22T06:11:14;53.03;;;19.42;;
57832;SDS011;43667;53.036;6.740;2023-11-22T06:13:41;46.67;;;18.38;;
57832;SDS011;43667;53.036;6.740;2023-11-22T06:16:12;42.00;;;16.92;;
57832;SDS011;43667;53.036;6.740;2023-11-22T06:18:38;40.28;;;18.17;;
57832;SDS011;43667;53.036;6.740;2023-11-22T06:21:08;44.40;;;19.08;;
57832;SDS011;43667;53.036;6.740;2023-11-22T06:23:34;47.90;;;17.92;;
57832;SDS011;43667;53.036;6.740;2023-11-22T06:26:01;33.88;;;17.52;;
57832;SDS011;43667;53.036;6.740;2023-11-22T06:28:27;42.35;;;18.30;;
57832;SDS011;43667;53.036;6.740;2023-11-22T06:30:54;44.30;;;18.80;;
57832;SDS011;43667;53.036;6.740;2023-11-22T06:33:20;31.00;;;17.60;;
57832;SDS011;43667;53.036;6.740;2023-11-22T06:35:46;43.47;;;18.63;;
57832;SDS011;43667;53.036;6.740;2023-11-22T06:38:12;50.13;;;21.75;;
57832;SDS011;43667;53.036;6.740;2023-11-22T06:40:38;47.60;;;20.33;;
57832;SDS011;43667;53.036;6.740;2023-11-22T06:43:04;49.60;;;20.75;;
57832;SDS011;43667;53.036;6.740;2023-11-22T06:45:30;49.72;;;21.23;;
57832;SDS011;43667;53.036;6.740;2023-11-22T06:47:56;54.95;;;21.60;;
57832;SDS011;43667;53.036;6.740;2023-11-22T06:50:23;56.65;;;22.60;;
57832;SDS011;43667;53.036;6.740;2023-11-22T06:52:49;57.10;;;24.05;;
57832;SDS011;43667;53.036;6.740;2023-11-22T06:55:17;62.92;;;23.27;;
57832;SDS011;43667;53.036;6.740;2023-11-22T06:57:43;55.55;;;21.75;;
57832;SDS011;43667;53.036;6.740;2023-11-22T07:00:09;62.38;;;23.52;;
57832;SDS011;43667;53.036;6.740;2023-11-22T07:02:37;52.85;;;22.08;;
57832;SDS011;43667;53.036;6.740;2023-11-22T07:05:03;49.40;;;20.13;;
57832;SDS011;43667;53.036;6.740;2023-11-22T07:07:36;55.58;;;19.90;;
57832;SDS011;43667;53.036;6.740;2023-11-22T07:10:02;50.13;;;20.67;;
57832;SDS011;43667;53.036;6.740;2023-11-22T07:12:30;53.92;;;21.55;;
57832;SDS011;43667;53.036;6.740;2023-11-22T07:14:56;55.95;;;22.08;;
57832;SDS011;43667;53.036;6.740;2023-11-22T07:17:22;59.83;;;22.13;;
57832;SDS011;43667;53.036;6.740;2023-11-22T07:19:48;59.45;;;23.38;;
57832;SDS011;43667;53.036;6.740;2023-11-22T07:22:14;67.15;;;23.30;;
57832;SDS011;43667;53.036;6.740;2023-11-22T07:24:44;54.28;;;23.17;;
57832;SDS011;43667;53.036;6.740;2023-11-22T07:27:11;59.83;;;22.60;;
57832;SDS011;43667;53.036;6.740;2023-11-22T07:29:37;67.13;;;23.88;;
57832;SDS011;43667;53.036;6.740;2023-11-22T07:32:03;67.30;;;22.20;;
57832;SDS011;43667;53.036;6.740;2023-11-22T07:34:30;61.00;;;24.77;;
57832;SDS011;43667;53.036;6.740;2023-11-22T07:36:55;66.78;;;25.63;;
57832;SDS011;43667;53.036;6.740;2023-11-22T07:39:21;63.67;;;25.33;;
57832;SDS011;43667;53.036;6.740;2023-11-22T07:41:52;66.50;;;25.75;;
57832;SDS011;43667;53.036;6.740;2023-11-22T07:44:18;61.35;;;26.50;;
57832;SDS011;43667;53.036;6.740;2023-11-22T07:46:44;73.57;;;27.45;;
57832;SDS011;43667;53.036;6.740;2023-11-22T07:49:11;58.92;;;26.05;;
57832;SDS011;43667;53.036;6.740;2023-11-22T07:51:39;64.38;;;26.67;;
57832;SDS011;43667;53.036;6.740;2023-11-22T07:54:05;65.35;;;27.60;;
57832;SDS011;43667;53.036;6.740;2023-11-22T07:56:31;64.55;;;27.58;;
57832;SDS011;43667;53.036;6.740;2023-11-22T07:58:58;64.63;;;27.50;;
57832;SDS011;43667;53.036;6.740;2023-11-22T08:01:24;59.47;;;27.13;;
57832;SDS011;43667;53.036;6.740;2023-11-22T08:03:53;70.28;;;27.17;;
57832;SDS011;43667;53.036;6.740;2023-11-22T08:06:21;66.97;;;27.73;;
57832;SDS011;43667;53.036;6.740;2023-11-22T08:08:47;67.07;;;27.33;;
57832;SDS011;43667;53.036;6.740;2023-11-22T08:11:13;72.32;;;27.95;;
57832;SDS011;43667;53.036;6.740;2023-11-22T08:13:43;64.80;;;26.63;;
57832;SDS011;43667;53.036;6.740;2023-11-22T08:16:10;67.47;;;28.55;;
57832;SDS011;43667;53.036;6.740;2023-11-22T08:18:38;74.93;;;27.77;;
57832;SDS011;43667;53.036;6.740;2023-11-22T08:21:04;62.80;;;27.33;;
57832;SDS011;43667;53.036;6.740;2023-11-22T08:23:30;57.78;;;27.00;;
57832;SDS011;43667;53.036;6.740;2023-11-22T08:26:00;66.82;;;27.80;;
57832;SDS011;43667;53.036;6.740;2023-11-22T08:28:26;54.63;;;25.00;;
57832;SDS011;43667;53.036;6.740;2023-11-22T08:30:54;56.72;;;24.90;;
57832;SDS011;43667;53.036;6.740;2023-11-22T08:33:21;67.93;;;25.98;;
57832;SDS011;43667;53.036;6.740;2023-11-22T08:35:47;55.10;;;25.23;;
57832;SDS011;43667;53.036;6.740;2023-11-22T08:38:17;47.08;;;23.38;;
57832;SDS011;43667;53.036;6.740;2023-11-22T08:40:44;55.22;;;24.52;;
57832;SDS011;43667;53.036;6.740;2023-11-22T08:43:10;68.13;;;26.70;;
57832;SDS011;43667;53.036;6.740;2023-11-22T08:45:36;64.32;;;25.85;;
57832;SDS011;43667;53.036;6.740;2023-11-22T08:48:02;72.10;;;26.17;;
57832;SDS011;43667;53.036;6.740;2023-11-22T08:50:28;47.85;;;23.08;;
57832;SDS011;43667;53.036;6.740;2023-11-22T08:52:54;54.38;;;24.67;;
57832;SDS011;43667;53.036;6.740;2023-11-22T08:55:23;44.13;;;22.13;;
57832;SDS011;43667;53.036;6.740;2023-11-22T08:57:49;45.58;;;22.38;;
57832;SDS011;43667;53.036;6.740;2023-11-22T09:00:16;41.85;;;21.90;;
57832;SDS011;43667;53.036;6.740;2023-11-22T09:02:47;41.67;;;21.73;;
57832;SDS011;43667;53.036;6.740;2023-11-22T09:05:14;44.13;;;21.60;;
57832;SDS011;43667;53.036;6.740;2023-11-22T09:07:42;37.88;;;21.27;;
57832;SDS011;43667;53.036;6.740;2023-11-22T09:10:09;43.63;;;21.77;;
57832;SDS011;43667;53.036;6.740;2023-11-22T09:12:41;38.03;;;21.05;;
57832;SDS011;43667;53.036;6.740;2023-11-22T09:15:12;40.92;;;21.75;;
57832;SDS011;43667;53.036;6.740;2023-11-22T09:17:41;36.30;;;20.63;;
57832;SDS011;43667;53.036;6.740;2023-11-22T09:20:11;40.30;;;21.50;;
57832;SDS011;43667;53.036;6.740;2023-11-22T09:22:45;38.53;;;20.55;;
57832;SDS011;43667;53.036;6.740;2023-11-22T09:25:14;36.85;;;19.52;;
57832;SDS011;43667;53.036;6.740;2023-11-22T09:27:42;36.85;;;19.83;;
57832;SDS011;43667;53.036;6.740;2023-11-22T09:30:11;38.17;;;20.30;;
57832;SDS011;43667;53.036;6.740;2023-11-22T09:32:43;33.88;;;19.17;;
57832;SDS011;43667;53.036;6.740;2023-11-22T09:35:11;36.45;;;19.33;;
57832;SDS011;43667;53.036;6.740;2023-11-22T09:37:39;33.08;;;19.48;;
57832;SDS011;43667;53.036;6.740;2023-11-22T09:40:07;26.77;;;16.52;;
57832;SDS011;43667;53.036;6.740;2023-11-22T09:42:34;23.48;;;16.08;;
57832;SDS011;43667;53.036;6.740;2023-11-22T09:45:00;29.85;;;17.38;;
57832;SDS011;43667;53.036;6.740;2023-11-22T09:47:26;26.63;;;17.30;;
57832;SDS011;43667;53.036;6.740;2023-11-22T09:49:54;31.35;;;17.10;;
57832;SDS011;43667;53.036;6.740;2023-11-22T09:52:22;26.40;;;16.58;;
57832;SDS011;43667;53.036;6.740;2023-11-22T09:54:49;29.27;;;15.75;;
57832;SDS011;43667;53.036;6.740;2023-11-22T09:57:16;27.35;;;16.60;;
57832;SDS011;43667;53.036;6.740;2023-11-22T09:59:43;22.10;;;14.98;;
57832;SDS011;43667;53.036;6.740;2023-11-22T10:02:10;21.70;;;15.15;;
57832;SDS011;43667;53.036;6.740;2023-11-22T10:04:36;25.33;;;15.45;;
57832;SDS011;43667;53.036;6.740;2023-11-22T10:07:03;25.00;;;15.02;;
57832;SDS011;43667;53.036;6.740;2023-11-22T10:09:29;23.30;;;14.45;;
57832;SDS011;43667;53.036;6.740;2023-11-22T10:12:01;17.80;;;13.02;;
57832;SDS011;43667;53.036;6.740;2023-11-22T10:14:27;16.80;;;11.93;;
57832;SDS011;43667;53.036;6.740;2023-11-22T10:17:00;14.82;;;11.60;;
57832;SDS011;43667;53.036;6.740;2023-11-22T10:19:26;16.10;;;11.50;;
57832;SDS011;43667;53.036;6.740;2023-11-22T10:22:03;14.57;;;11.38;;
57832;SDS011;43667;53.036;6.740;2023-11-22T10:24:30;16.83;;;10.95;;
57832;SDS011;43667;53.036;6.740;2023-11-22T10:26:58;14.90;;;11.25;;
57832;SDS011;43667;53.036;6.740;2023-11-22T10:29:27;14.45;;;11.52;;
57832;SDS011;43667;53.036;6.740;2023-11-22T10:31:54;17.65;;;11.90;;
57832;SDS011;43667;53.036;6.740;2023-11-22T10:34:23;14.60;;;10.00;;
57832;SDS011;43667;53.036;6.740;2023-11-22T10:36:49;12.07;;;10.15;;
57832;SDS011;43667;53.036;6.740;2023-11-22T10:39:22;15.60;;;10.80;;
57832;SDS011;43667;53.036;6.740;2023-11-22T10:41:50;18.13;;;10.73;;
57832;SDS011;43667;53.036;6.740;2023-11-22T10:44:18;14.48;;;10.90;;
57832;SDS011;43667;53.036;6.740;2023-11-22T10:46:49;14.50;;;10.45;;
57832;SDS011;43667;53.036;6.740;2023-11-22T10:49:20;13.95;;;10.32;;
57832;SDS011;43667;53.036;6.740;2023-11-22T10:51:48;14.75;;;10.68;;
57832;SDS011;43667;53.036;6.740;2023-11-22T10:54:16;14.05;;;10.20;;
57832;SDS011;43667;53.036;6.740;2023-11-22T10:56:42;15.27;;;10.07;;
57832;SDS011;43667;53.036;6.740;2023-11-22T10:59:15;16.67;;;11.68;;
57832;SDS011;43667;53.036;6.740;2023-11-22T11:01:45;14.65;;;10.73;;
57832;SDS011;43667;53.036;6.740;2023-11-22T11:04:15;14.68;;;10.95;;
57832;SDS011;43667;53.036;6.740;2023-11-22T11:09:11;13.57;;;10.57;;
57832;SDS011;43667;53.036;6.740;2023-11-22T11:11:40;13.93;;;10.95;;
57832;SDS011;43667;53.036;6.740;2023-11-22T11:14:07;16.00;;;11.93;;
57832;SDS011;43667;53.036;6.740;2023-11-22T11:16:36;14.95;;;11.27;;
57832;SDS011;43667;53.036;6.740;2023-11-22T11:19:03;17.17;;;11.80;;
57832;SDS011;43667;53.036;6.740;2023-11-22T11:21:32;16.17;;;11.95;;
57832;SDS011;43667;53.036;6.740;2023-11-22T11:23:58;14.80;;;11.60;;
57832;SDS011;43667;53.036;6.740;2023-11-22T11:26:28;18.92;;;12.70;;
57832;SDS011;43667;53.036;6.740;2023-11-22T11:28:54;16.48;;;11.35;;
57832;SDS011;43667;53.036;6.740;2023-11-22T11:31:20;14.98;;;11.70;;
57832;SDS011;43667;53.036;6.740;2023-11-22T11:36:23;16.05;;;11.90;;
57832;SDS011;43667;53.036;6.740;2023-11-22T11:38:50;13.27;;;10.23;;
57832;SDS011;43667;53.036;6.740;2023-11-22T11:41:17;13.40;;;10.48;;
57832;SDS011;43667;53.036;6.740;2023-11-22T11:43:43;14.70;;;9.55;;
57832;SDS011;43667;53.036;6.740;2023-11-22T11:46:13;12.30;;;9.00;;
57832;SDS011;43667;53.036;6.740;2023-11-22T11:48:43;13.27;;;9.57;;
57832;SDS011;43667;53.036;6.740;2023-11-22T11:51:09;10.50;;;8.73;;
57832;SDS011;43667;53.036;6.740;2023-11-22T11:53:37;15.13;;;9.13;;
57832;SDS011;43667;53.036;6.740;2023-11-22T11:56:03;11.45;;;8.45;;
57832;SDS011;43667;53.036;6.740;2023-11-22T11:58:29;12.32;;;8.90;;
57832;SDS011;43667;53.036;6.740;2023-11-22T12:00:55;12.18;;;8.48;;
57832;SDS011;43667;53.036;6.740;2023-11-22T12:03:22;10.25;;;8.23;;
57832;SDS011;43667;53.036;6.740;2023-11-22T12:05:48;10.32;;;7.80;;
57832;SDS011;43667;53.036;6.740;2023-11-22T12:08:14;11.15;;;8.25;;
57832;SDS011;43667;53.036;6.740;2023-11-22T12:10:42;9.60;;;7.78;;
57832;SDS011;43667;53.036;6.740;2023-11-22T12:13:08;9.63;;;8.13;;
57832;SDS011;43667;53.036;6.740;2023-11-22T12:15:34;9.68;;;7.93;;
57832;SDS011;43667;53.036;6.740;2023-11-22T12:18:03;11.02;;;7.57;;
57832;SDS011;43667;53.036;6.740;2023-11-22T12:20:30;9.18;;;6.90;;
57832;SDS011;43667;53.036;6.740;2023-11-22T12:22:57;10.88;;;7.10;;
57832;SDS011;43667;53.036;6.740;2023-11-22T12:25:29;7.60;;;6.80;;
57832;SDS011;43667;53.036;6.740;2023-11-22T12:27:55;8.60;;;6.88;;
57832;SDS011;43667;53.036;6.740;2023-11-22T12:30:34;8.82;;;7.20;;
57832;SDS011;43667;53.036;6.740;2023-11-22T12:33:04;8.13;;;6.25;;
57832;SDS011;43667;53.036;6.740;2023-11-22T12:35:31;8.23;;;6.18;;
57832;SDS011;43667;53.036;6.740;2023-11-22T12:38:04;8.65;;;6.20;;
57832;SDS011;43667;53.036;6.740;2023-11-22T12:40:34;8.73;;;6.18;;
57832;SDS011;43667;53.036;6.740;2023-11-22T12:43:01;8.23;;;6.00;;
57832;SDS011;43667;53.036;6.740;2023-11-22T12:45:28;8.52;;;6.82;;
57832;SDS011;43667;53.036;6.740;2023-11-22T12:47:55;6.72;;;5.80;;
57832;SDS011;43667;53.036;6.740;2023-11-22T12:50:36;7.43;;;5.72;;
57832;SDS011;43667;53.036;6.740;2023-11-22T12:53:13;8.17;;;6.27;;
57832;SDS011;43667;53.036;6.740;2023-11-22T12:55:42;8.77;;;6.43;;
57832;SDS011;43667;53.036;6.740;2023-11-22T12:58:14;9.48;;;6.35;;
57832;SDS011;43667;53.036;6.740;2023-11-22T13:00:40;7.13;;;5.53;;
57832;SDS011;43667;53.036;6.740;2023-11-22T13:03:06;9.27;;;6.82;;
57832;SDS011;43667;53.036;6.740;2023-11-22T13:05:35;7.05;;;6.18;;
57832;SDS011;43667;53.036;6.740;2023-11-22T13:08:01;9.60;;;6.65;;
57832;SDS011;43667;53.036;6.740;2023-11-22T13:10:29;7.88;;;6.57;;
57832;SDS011;43667;53.036;6.740;2023-11-22T13:12:55;10.57;;;6.78;;
57832;SDS011;43667;53.036;6.740;2023-11-22T13:15:21;8.20;;;6.45;;
57832;SDS011;43667;53.036;6.740;2023-11-22T13:17:54;8.18;;;5.90;;
57832;SDS011;43667;53.036;6.740;2023-11-22T13:20:24;8.55;;;5.95;;
57832;SDS011;43667;53.036;6.740;2023-11-22T13:22:53;8.32;;;6.18;;
57832;SDS011;43667;53.036;6.740;2023-11-22T13:25:23;9.05;;;6.68;;
57832;SDS011;43667;53.036;6.740;2023-11-22T13:27:49;8.15;;;6.10;;
57832;SDS011;43667;53.036;6.740;2023-11-22T13:30:17;7.80;;;5.93;;
57832;SDS011;43667;53.036;6.740;2023-11-22T13:32:45;7.82;;;6.07;;
57832;SDS011;43667;53.036;6.740;2023-11-22T13:35:12;7.25;;;6.15;;
57832;SDS011;43667;53.036;6.740;2023-11-22T13:37:45;7.88;;;5.95;;
57832;SDS011;43667;53.036;6.740;2023-11-22T13:40:13;9.35;;;5.85;;
57832;SDS011;43667;53.036;6.740;2023-11-22T13:42:41;6.72;;;5.85;;
57832;SDS011;43667;53.036;6.740;2023-11-22T13:45:07;8.13;;;6.22;;
57832;SDS011;43667;53.036;6.740;2023-11-22T13:47:33;7.20;;;5.97;;
57832;SDS011;43667;53.036;6.740;2023-11-22T13:49:59;7.85;;;6.05;;
57832;SDS011;43667;53.036;6.740;2023-11-22T13:52:25;8.32;;;6.13;;
57832;SDS011;43667;53.036;6.740;2023-11-22T13:54:51;9.85;;;6.18;;
57832;SDS011;43667;53.036;6.740;2023-11-22T13:57:21;8.27;;;6.10;;
57832;SDS011;43667;53.036;6.740;2023-11-22T13:59:47;8.75;;;6.38;;
57832;SDS011;43667;53.036;6.740;2023-11-22T14:02:13;9.20;;;6.30;;
57832;SDS011;43667;53.036;6.740;2023-11-22T14:04:39;8.27;;;6.28;;
57832;SDS011;43667;53.036;6.740;2023-11-22T14:07:05;7.60;;;6.18;;
57832;SDS011;43667;53.036;6.740;2023-11-22T14:09:32;7.00;;;5.90;;
57832;SDS011;43667;53.036;6.740;2023-11-22T14:12:01;7.07;;;5.75;;
57832;SDS011;43667;53.036;6.740;2023-11-22T14:14:27;7.18;;;6.00;;
57832;SDS011;43667;53.036;6.740;2023-11-22T14:16:53;8.50;;;6.32;;
57832;SDS011;43667;53.036;6.740;2023-11-22T14:19:19;8.68;;;6.00;;
57832;SDS011;43667;53.036;6.740;2023-11-22T14:21:45;8.30;;;7.07;;
57832;SDS011;43667;53.036;6.740;2023-11-22T14:24:12;7.68;;;6.43;;
57832;SDS011;43667;53.036;6.740;2023-11-22T14:26:38;9.63;;;7.20;;
57832;SDS011;43667;53.036;6.740;2023-11-22T14:29:04;8.80;;;6.75;;